createdAt,value
2022-09-28T00:19:08.421Z,60.58
2022-09-28T00:25:47.222Z,64.75
2022-09-28T00:28:15.663Z,60.72
2022-09-28T00:30:48.649Z,63.15
2022-09-28T00:33:27.999Z,87.60
2022-09-28T00:36:03.294Z,53.30
2022-09-28T00:38:37.964Z,25.80
2022-09-28T00:41:11.695Z,26.48
2022-09-28T00:43:43.948Z,23.58
2022-09-28T00:46:41.908Z,20.65
2022-09-28T00:49:39.427Z,14.45
2022-09-28T00:52:20.067Z,12.88
2022-09-28T00:54:50.872Z,17.30
2022-09-28T01:00:30.184Z,15.75
2022-09-28T01:03:00.905Z,18.92
2022-09-28T01:05:31.697Z,11.93
2022-09-28T01:08:01.032Z,15.57
2022-09-28T01:10:46.417Z,12.30
2022-09-28T01:13:18.541Z,28.02
2022-09-28T01:15:58.230Z,22.05
2022-09-28T01:18:38.370Z,13.73
2022-09-28T01:21:12.942Z,18.80
2022-09-28T01:24:06.434Z,19.92
2022-09-28T01:26:58.162Z,20.70
2022-09-28T01:29:37.735Z,17.00
2022-09-28T01:32:15.631Z,12.90
2022-09-28T01:34:51.539Z,9.60
2022-09-28T01:37:27.824Z,17.75
2022-09-28T01:40:02.639Z,10.32
2022-09-28T01:42:49.393Z,34.10
2022-09-28T01:45:24.081Z,22.50
2022-09-28T01:47:55.775Z,11.25
2022-09-28T01:50:27.925Z,12.50
2022-09-28T01:53:00.970Z,12.50
2022-09-28T01:59:08.957Z,1.00
2022-09-28T02:01:42.369Z,1.05
2022-09-28T02:04:17.060Z,1.13
2022-09-28T02:06:58.960Z,0.90
2022-09-28T02:09:42.435Z,1.20
2022-09-28T02:13:04.939Z,2.17
2022-09-28T02:26:59.832Z,1.60
2022-09-28T02:28:53.048Z,1.05
2022-09-28T02:31:24.159Z,0.82
2022-09-28T02:43:01.318Z,1.15
2022-09-28T02:46:32.424Z,1.52
2022-09-28T03:42:01.092Z,3.13
2022-09-28T03:44:37.595Z,1.25
2022-09-28T03:47:06.085Z,1.73
2022-09-28T03:49:34.817Z,2.00
2022-09-28T03:52:20.306Z,1.90
2022-09-28T03:54:49.481Z,2.67
2022-09-28T03:57:21.656Z,1.70
2022-09-28T03:59:51.010Z,2.33
2022-09-28T04:02:50.614Z,3.13
2022-09-28T04:05:19.815Z,3.40
2022-09-28T04:07:49.768Z,3.70
2022-09-28T04:10:18.138Z,4.60
2022-09-28T04:12:49.963Z,4.38
2022-09-28T04:15:18.557Z,3.05
2022-09-28T04:17:46.956Z,3.22
2022-09-28T04:20:34.944Z,2.47
2022-09-28T04:23:10.123Z,4.07
2022-09-28T04:25:39.871Z,2.65
2022-09-28T04:31:24.739Z,4.75
2022-09-28T04:36:56.717Z,2.22
2022-09-28T04:39:28.255Z,2.88
2022-09-28T04:41:58.627Z,3.55
2022-09-28T04:44:30.217Z,3.83
2022-09-28T04:47:10.800Z,4.38
2022-09-28T04:50:39.919Z,3.95
2022-09-28T04:54:10.622Z,5.38
2022-09-28T04:56:47.191Z,3.97
2022-09-28T04:59:30.940Z,7.47
2022-09-28T05:03:06.145Z,4.63
2022-09-28T05:06:40.618Z,3.53
2022-09-28T05:13:03.074Z,4.07
2022-09-28T05:15:45.706Z,4.68
2022-09-28T05:18:23.082Z,2.80
2022-09-28T05:21:08.025Z,3.42
2022-09-28T05:23:39.805Z,6.80
2022-09-28T05:26:10.648Z,5.60
2022-09-28T05:28:40.134Z,2.92
2022-09-28T05:31:44.380Z,5.88
2022-09-28T05:34:39.976Z,5.43
2022-09-28T05:37:08.849Z,6.85
2022-09-28T05:40:07.300Z,4.60
2022-09-28T05:42:37.127Z,6.07
2022-09-28T05:45:29.564Z,4.38
2022-09-28T05:48:24.850Z,6.45
2022-09-28T05:50:54.065Z,2.65
2022-09-28T05:53:22.606Z,3.90
2022-09-28T05:55:51.300Z,4.57
2022-09-28T05:58:24.459Z,6.03
2022-09-28T06:00:56.420Z,4.70
2022-09-28T06:03:56.681Z,4.97
2022-09-28T06:06:25.237Z,4.25
2022-09-28T06:08:54.263Z,2.20
2022-09-28T06:11:41.107Z,2.67
2022-09-28T06:14:23.737Z,4.90
2022-09-28T06:16:51.993Z,3.15
2022-09-28T06:19:20.357Z,5.97
2022-09-28T06:22:07.094Z,4.03
2022-09-28T06:24:43.414Z,3.53
2022-09-28T06:27:16.390Z,4.43
2022-09-28T06:30:00.163Z,2.83
2022-09-28T06:32:34.971Z,4.30
2022-09-28T06:37:49.897Z,5.45
2022-09-28T06:40:18.803Z,5.10
2022-09-28T06:42:56.312Z,3.05
2022-09-28T06:45:53.298Z,4.00
2022-09-28T06:48:47.503Z,4.57
2022-09-28T06:51:20.582Z,6.63
2022-09-28T06:54:26.044Z,4.40
2022-09-28T06:57:29.477Z,4.85
2022-09-28T06:59:57.919Z,3.88
2022-09-28T07:02:31.947Z,6.22
2022-09-28T07:05:03.848Z,4.68
2022-09-28T07:11:45.500Z,7.68
2022-09-28T07:17:21.817Z,4.72
2022-09-28T07:20:14.499Z,4.82
2022-09-28T07:22:47.977Z,3.55
2022-09-28T07:25:43.111Z,3.65
2022-09-28T07:28:37.788Z,6.03
2022-09-28T07:31:34.745Z,3.92
2022-09-28T07:34:44.076Z,4.75
2022-09-28T07:37:45.877Z,3.35
2022-09-28T07:40:59.896Z,6.05
2022-09-28T07:43:55.108Z,13.13
2022-09-28T07:46:26.442Z,7.88
2022-09-28T07:49:09.816Z,3.67
2022-09-28T07:52:06.626Z,7.28
2022-09-28T07:55:19.090Z,3.28
2022-09-28T07:58:31.960Z,8.52
2022-09-28T08:01:35.279Z,8.88
2022-09-28T08:04:07.706Z,4.38
2022-09-28T08:07:07.240Z,3.40
2022-09-28T08:09:52.125Z,4.72
2022-09-28T08:12:42.238Z,3.95
2022-09-28T08:15:42.855Z,6.40
2022-09-28T08:18:54.227Z,3.80
2022-09-28T08:24:40.882Z,4.75
2022-09-28T08:27:26.972Z,4.10
2022-09-28T08:30:17.149Z,3.72
2022-09-28T08:33:38.418Z,4.97
2022-09-28T08:36:25.283Z,3.55
2022-09-28T08:39:22.863Z,5.10
2022-09-28T08:42:22.204Z,4.53
2022-09-28T08:45:10.422Z,5.20
2022-09-28T08:48:22.130Z,5.68
2022-09-28T08:51:18.366Z,3.53
2022-09-28T08:54:38.321Z,5.03
2022-09-28T08:57:22.744Z,3.70
2022-09-28T08:59:53.536Z,3.78
2022-09-28T09:02:34.934Z,3.45
2022-09-28T09:05:19.180Z,4.68
2022-09-28T09:08:17.001Z,6.70
2022-09-28T09:11:02.178Z,4.63
2022-09-28T09:14:07.000Z,3.53
2022-09-28T09:16:45.699Z,3.67
2022-09-28T09:19:42.305Z,8.73
2022-09-28T09:22:40.899Z,2.78
2022-09-28T09:25:20.349Z,2.63
2022-09-28T09:28:35.310Z,3.40
2022-09-28T09:31:13.256Z,5.57
2022-09-28T09:34:18.144Z,4.53
2022-09-28T09:37:00.898Z,2.20
2022-09-28T09:40:04.887Z,4.40
2022-09-28T09:43:17.460Z,3.20
2022-09-28T09:46:03.208Z,2.00
2022-09-28T09:48:47.771Z,2.15
2022-09-28T09:51:23.766Z,3.25
2022-09-28T09:53:59.773Z,1.88
2022-09-28T09:56:35.714Z,2.55
2022-09-28T09:59:24.108Z,2.35
2022-09-28T10:02:21.731Z,3.05
2022-09-28T10:04:58.852Z,2.25
2022-09-28T10:07:43.274Z,1.63
2022-09-28T10:10:21.598Z,4.15
2022-09-28T10:12:52.185Z,2.08
2022-09-28T10:15:25.604Z,2.05
2022-09-28T10:18:21.985Z,2.05
2022-09-28T10:21:12.869Z,2.20
2022-09-28T10:24:02.852Z,1.42
2022-09-28T10:26:36.867Z,1.80
2022-09-28T10:29:14.683Z,1.83
2022-09-28T10:31:47.307Z,2.55
2022-09-28T10:34:41.869Z,1.98
2022-09-28T10:37:18.376Z,1.60
2022-09-28T10:40:30.314Z,2.35
2022-09-28T10:43:07.520Z,1.38
2022-09-28T10:45:38.647Z,2.17
2022-09-28T10:48:14.992Z,3.60
2022-09-28T10:50:58.185Z,1.83
2022-09-28T10:53:26.512Z,1.73
2022-09-28T10:56:21.729Z,1.92
2022-09-28T10:58:56.227Z,1.75
2022-09-28T11:01:34.910Z,1.33
2022-09-28T11:04:08.117Z,5.30
2022-09-28T11:06:39.924Z,1.75
2022-09-28T11:09:30.593Z,1.80
2022-09-28T11:12:06.085Z,1.35
2022-09-28T11:14:42.456Z,1.65
2022-09-28T11:17:27.640Z,1.55
2022-09-28T11:19:56.076Z,53.95
2022-09-28T11:22:28.958Z,5.57
2022-09-28T11:25:24.535Z,1.85
2022-09-28T11:28:01.749Z,2.42
2022-09-28T11:30:35.209Z,1.98
2022-09-28T11:33:33.587Z,1.00
2022-09-28T11:36:38.210Z,1.73
2022-09-28T11:39:12.214Z,1.45
2022-09-28T11:42:01.937Z,1.70
2022-09-28T11:44:40.139Z,1.50
2022-09-28T11:47:52.128Z,2.28
2022-09-28T11:50:28.591Z,1.40
2022-09-28T11:53:05.796Z,1.30
2022-09-28T11:55:38.263Z,3.20
2022-09-28T11:58:13.006Z,1.88
2022-09-28T12:00:49.098Z,1.40
2022-09-28T12:03:34.159Z,1.88
2022-09-28T12:06:07.371Z,1.80
2022-09-28T12:08:41.474Z,1.67
2022-09-28T12:11:36.150Z,1.30
2022-09-28T12:14:24.426Z,1.00
2022-09-28T12:17:06.691Z,1.02
2022-09-28T12:19:42.480Z,1.65
2022-09-28T12:22:18.712Z,1.70
2022-09-28T12:24:50.160Z,1.17
2022-09-28T12:27:25.623Z,1.67
2022-09-28T12:29:58.285Z,1.85
2022-09-28T12:32:32.851Z,1.42
2022-09-28T12:35:03.539Z,1.08
2022-09-28T12:37:51.479Z,1.52
2022-09-28T12:40:39.708Z,2.03
2022-09-28T12:43:31.243Z,3.90
2022-09-28T12:46:16.777Z,1.10
2022-09-28T12:50:07.290Z,1.42
2022-09-28T12:52:27.335Z,10.57
2022-09-28T12:55:27.452Z,1.90
2022-09-28T12:58:14.689Z,2.05
2022-09-28T13:00:55.911Z,1.50
2022-09-28T13:03:45.657Z,1.58
2022-09-28T13:06:26.467Z,1.75
2022-09-28T13:09:21.837Z,2.65
2022-09-28T13:12:13.212Z,0.95
2022-09-28T13:15:22.617Z,1.48
2022-09-28T13:17:58.579Z,1.45
2022-09-28T13:20:35.912Z,1.60
2022-09-28T13:23:18.678Z,1.30
2022-09-28T13:25:55.718Z,1.10
2022-09-28T13:28:27.390Z,1.20
2022-09-28T13:33:35.886Z,1.30
2022-09-28T13:36:47.346Z,1.52
2022-09-28T13:39:48.787Z,1.73
2022-09-28T13:42:37.198Z,1.77
2022-09-28T13:45:38.095Z,5.93
2022-09-28T13:48:16.084Z,1.50
2022-09-28T13:51:07.743Z,2.72
2022-09-28T13:54:00.194Z,1.60
2022-09-28T13:56:37.376Z,1.83
2022-09-28T13:59:16.303Z,2.65
2022-09-28T14:01:55.857Z,2.45
2022-09-28T14:04:26.427Z,1.50
2022-09-28T14:06:57.617Z,1.80
2022-09-28T14:09:41.288Z,1.58
2022-09-28T14:12:29.838Z,2.55
2022-09-28T14:15:00.108Z,2.15
2022-09-28T14:17:53.254Z,1.67
2022-09-28T14:20:26.573Z,1.85
2022-09-28T14:23:21.216Z,2.05
2022-09-28T14:26:07.210Z,1.75
2022-09-28T14:28:49.180Z,1.70
2022-09-28T14:31:27.274Z,2.17
2022-09-28T14:33:58.740Z,1.85
2022-09-28T14:36:47.911Z,1.48
2022-09-28T14:39:39.934Z,1.70
2022-09-28T14:42:15.765Z,1.30
2022-09-28T14:45:18.175Z,1.98
2022-09-28T14:48:21.378Z,9.20
2022-09-28T14:50:50.129Z,8.18
2022-09-28T14:53:24.878Z,8.10
2022-09-28T14:55:58.928Z,7.85
2022-09-28T14:58:29.972Z,7.60
2022-09-28T15:01:06.486Z,9.48
2022-09-28T15:03:39.413Z,8.77
2022-09-28T15:06:07.967Z,7.53
2022-09-28T15:08:40.360Z,9.32
2022-09-28T15:11:15.382Z,6.82
2022-09-28T15:13:44.671Z,8.07
2022-09-28T15:16:15.506Z,9.77
2022-09-28T15:19:15.813Z,9.88
2022-09-28T15:21:47.398Z,8.00
2022-09-28T15:24:32.967Z,6.85
2022-09-28T15:27:01.628Z,8.18
2022-09-28T15:29:33.550Z,11.05
2022-09-28T15:32:02.814Z,12.45
2022-09-28T15:34:52.301Z,10.25
2022-09-28T15:37:24.043Z,10.38
2022-09-28T15:39:53.459Z,10.25
2022-09-28T15:42:22.891Z,6.40
2022-09-28T15:45:07.911Z,7.53
2022-09-28T15:47:38.869Z,6.28
2022-09-28T15:50:21.782Z,7.78
2022-09-28T15:52:56.498Z,6.40
2022-09-28T15:55:28.405Z,10.90
2022-09-28T15:58:08.866Z,5.78
2022-09-28T16:00:37.466Z,9.98
2022-09-28T16:03:22.620Z,6.40
2022-09-28T16:06:05.540Z,6.57
2022-09-28T16:08:39.978Z,5.65
2022-09-28T16:11:16.292Z,6.18
2022-09-28T16:13:56.449Z,12.20
2022-09-28T16:16:28.496Z,8.65
2022-09-28T16:19:00.623Z,8.43
2022-09-28T16:21:49.039Z,7.97
2022-09-28T16:24:23.600Z,8.82
2022-09-28T16:26:59.244Z,13.80
2022-09-28T16:29:33.722Z,8.68
2022-09-28T16:32:38.295Z,7.68
2022-09-28T16:35:19.835Z,6.13
2022-09-28T16:37:55.646Z,6.85
2022-09-28T16:40:24.149Z,6.60
2022-09-28T16:42:55.175Z,9.18
2022-09-28T16:45:24.395Z,8.18
2022-09-28T16:47:53.545Z,6.00
2022-09-28T16:50:23.245Z,8.30
2022-09-28T16:53:17.182Z,7.30
2022-09-28T16:55:47.604Z,7.10
2022-09-28T16:58:15.921Z,5.97
2022-09-28T17:00:45.863Z,6.47
2022-09-28T17:03:16.440Z,8.85
2022-09-28T17:05:45.826Z,8.02
2022-09-28T17:08:18.408Z,6.57
2022-09-28T17:13:41.062Z,6.53
2022-09-28T17:16:14.311Z,9.27
2022-09-28T17:18:42.874Z,7.47
2022-09-28T17:21:15.057Z,6.85
2022-09-28T17:23:44.785Z,8.38
2022-09-28T17:26:19.681Z,8.40
2022-09-28T17:28:48.131Z,11.82
2022-09-28T17:31:17.522Z,8.93
2022-09-28T17:33:46.092Z,12.68
2022-09-28T17:36:16.751Z,10.10
2022-09-28T17:38:47.828Z,11.57
2022-09-28T17:41:20.386Z,11.80
2022-09-28T17:43:49.349Z,13.80
2022-09-28T17:46:27.359Z,13.63
2022-09-28T17:48:59.709Z,15.38
2022-09-28T17:51:30.264Z,15.23
2022-09-28T17:54:01.218Z,17.00
2022-09-28T17:56:32.625Z,11.98
2022-09-28T17:59:03.965Z,12.13
2022-09-28T18:01:34.581Z,13.77
2022-09-28T18:04:04.955Z,13.50
2022-09-28T18:06:33.709Z,10.05
2022-09-28T18:09:04.190Z,10.90
2022-09-28T18:11:33.668Z,14.32
2022-09-28T18:14:11.023Z,24.13
2022-09-28T18:16:41.145Z,12.60
2022-09-28T18:19:09.410Z,15.23
2022-09-28T18:21:37.678Z,22.75
2022-09-28T18:24:07.349Z,18.48
2022-09-28T18:26:35.593Z,19.58
2022-09-28T18:29:03.829Z,19.73
2022-09-28T18:31:32.226Z,20.23
2022-09-28T18:34:01.641Z,19.13
2022-09-28T18:36:30.370Z,18.08
2022-09-28T18:38:58.716Z,22.38
2022-09-28T18:41:29.408Z,17.30
2022-09-28T18:44:00.875Z,18.75
2022-09-28T18:46:30.455Z,19.50
2022-09-28T18:48:58.692Z,23.60
2022-09-28T18:51:26.868Z,16.55
2022-09-28T18:53:55.084Z,21.40
2022-09-28T18:56:23.675Z,13.55
2022-09-28T18:59:18.372Z,12.73
2022-09-28T19:02:04.297Z,15.85
2022-09-28T19:04:32.681Z,16.88
2022-09-28T19:07:08.722Z,10.90
2022-09-28T19:09:36.987Z,11.88
2022-09-28T19:12:05.711Z,12.82
2022-09-28T19:14:35.381Z,13.43
2022-09-28T19:17:04.363Z,13.75
2022-09-28T19:19:33.076Z,12.18
2022-09-28T19:22:01.499Z,14.75
2022-09-28T19:24:29.802Z,13.77
2022-09-28T19:26:58.099Z,15.65
2022-09-28T19:29:26.463Z,18.17
2022-09-28T19:31:56.797Z,18.52
2022-09-28T19:34:27.080Z,15.25
2022-09-28T19:36:55.491Z,15.68
2022-09-28T19:39:23.792Z,21.00
2022-09-28T19:41:52.659Z,21.40
2022-09-28T19:44:25.800Z,14.77
2022-09-28T19:46:57.163Z,19.23
2022-09-28T19:49:27.275Z,17.33
2022-09-28T19:52:14.663Z,15.63
2022-09-28T19:54:45.018Z,15.93
2022-09-28T19:57:15.945Z,17.40
2022-09-28T19:59:44.563Z,16.27
2022-09-28T20:02:14.215Z,17.48
2022-09-28T20:04:42.366Z,14.38
2022-09-28T20:07:10.760Z,15.10
2022-09-28T20:09:39.037Z,14.35
2022-09-28T20:12:07.417Z,19.20
2022-09-28T20:14:40.378Z,16.58
2022-09-28T20:17:09.096Z,12.93
2022-09-28T20:19:39.177Z,15.38
2022-09-28T20:22:07.729Z,15.35
2022-09-28T20:24:35.948Z,12.70
2022-09-28T20:27:04.186Z,14.77
2022-09-28T20:29:33.449Z,14.23
2022-09-28T20:32:04.148Z,17.60
2022-09-28T20:34:33.578Z,17.17
2022-09-28T20:37:03.385Z,13.75
2022-09-28T20:39:31.587Z,17.95
2022-09-28T20:41:59.803Z,14.60
2022-09-28T20:44:28.115Z,14.63
2022-09-28T20:46:59.649Z,11.70
2022-09-28T20:49:28.218Z,9.82
2022-09-28T20:52:03.111Z,12.68
2022-09-28T20:54:32.483Z,10.20
2022-09-28T20:57:21.360Z,10.63
2022-09-28T20:59:53.778Z,13.65
2022-09-28T21:02:23.249Z,11.98
2022-09-28T21:04:56.190Z,11.10
2022-09-28T21:07:26.034Z,10.52
2022-09-28T21:09:54.565Z,15.10
2022-09-28T21:12:26.109Z,10.68
2022-09-28T21:14:54.510Z,11.13
2022-09-28T21:17:22.991Z,10.95
2022-09-28T21:19:51.217Z,11.98
2022-09-28T21:22:19.351Z,15.00
2022-09-28T21:24:49.080Z,16.92
2022-09-28T21:27:17.838Z,16.13
2022-09-28T21:29:46.051Z,13.20
2022-09-28T21:32:14.386Z,13.70
2022-09-28T21:34:42.665Z,12.32
2022-09-28T21:37:10.899Z,12.65
2022-09-28T21:39:39.242Z,13.25
2022-09-28T21:42:09.084Z,15.25
2022-09-28T21:44:37.332Z,15.00
2022-09-28T21:47:05.792Z,14.20
2022-09-28T21:49:33.981Z,16.52
2022-09-28T21:52:03.094Z,15.90
2022-09-28T21:54:31.358Z,16.98
2022-09-28T21:57:01.410Z,18.55
2022-09-28T21:59:30.980Z,23.92
2022-09-28T22:01:59.264Z,18.80
2022-09-28T22:04:27.561Z,15.45
2022-09-28T22:06:55.798Z,14.05
2022-09-28T22:09:24.037Z,13.07
2022-09-28T22:11:52.236Z,13.40
2022-09-28T22:14:21.082Z,9.65
2022-09-28T22:16:50.666Z,13.50
2022-09-28T22:19:19.145Z,12.80
2022-09-28T22:21:47.723Z,11.32
2022-09-28T22:24:16.061Z,13.00
2022-09-28T22:26:44.369Z,10.95
2022-09-28T22:29:12.787Z,9.85
2022-09-28T22:31:42.524Z,11.18
2022-09-28T22:34:12.284Z,11.98
2022-09-28T22:36:40.583Z,13.07
2022-09-28T22:39:08.846Z,14.32
2022-09-28T22:41:37.120Z,13.93
2022-09-28T22:44:05.491Z,13.13
2022-09-28T22:46:33.846Z,21.95
2022-09-28T22:49:02.343Z,17.13
2022-09-28T22:51:32.556Z,15.68
2022-09-28T22:54:01.306Z,18.60
2022-09-28T22:56:30.213Z,13.48
2022-09-28T22:58:58.850Z,13.98
2022-09-28T23:01:28.907Z,15.18
2022-09-28T23:03:58.329Z,14.60
2022-09-28T23:06:33.115Z,18.67
2022-09-28T23:09:02.752Z,20.95
2022-09-28T23:11:31.062Z,20.98
2022-09-28T23:14:00.540Z,18.73
2022-09-28T23:16:30.192Z,20.75
2022-09-28T23:18:58.758Z,22.48
2022-09-28T23:21:29.351Z,20.40
2022-09-28T23:24:01.047Z,23.95
2022-09-28T23:26:32.974Z,24.33
2022-09-28T23:29:01.509Z,22.42
2022-09-28T23:31:31.722Z,30.30
2022-09-28T23:34:01.186Z,28.70
2022-09-28T23:36:29.849Z,39.67
2022-09-28T23:38:58.240Z,35.13
2022-09-28T23:41:26.527Z,36.60
2022-09-28T23:43:56.350Z,36.80
2022-09-28T23:46:24.781Z,51.28
2022-09-28T23:48:53.287Z,41.85
2022-09-28T23:51:21.562Z,46.75
2022-09-28T23:53:49.884Z,48.67
2022-09-28T23:56:18.128Z,50.72
2022-09-28T23:58:46.416Z,55.50
